sensor_id;sensor_type;location;lat;lon;timestamp;pressure;altitude;pressure_sealevel;temperature;humidity
61697;BME280;47610;52.252;20.922;2023-12-20T00:00:54;99432.30;;;6.67;100.00
61697;BME280;47610;52.252;20.922;2023-12-20T00:05:57;99429.41;;;6.65;100.00
61697;BME280;47610;52.252;20.922;2023-12-20T00:11:00;99418.35;;;6.63;100.00
61697;BME280;47610;52.252;20.922;2023-12-20T00:16:04;99413.70;;;6.66;100.00
61697;BME280;47610;52.252;20.922;2023-12-20T00:21:07;99411.02;;;6.68;100.00
61697;BME280;47610;52.252;20.922;2023-12-20T00:26:10;99410.58;;;6.69;100.00
61697;BME280;47610;52.252;20.922;2023-12-20T00:31:13;99408.98;;;6.67;100.00
61697;BME280;47610;52.252;20.922;2023-12-20T00:36:16;99399.21;;;6.63;100.00
61697;BME280;47610;52.252;20.922;2023-12-20T00:41:19;99397.19;;;6.69;100.00
61697;BME280;47610;52.252;20.922;2023-12-20T00:46:22;99399.75;;;6.71;100.00
61697;BME280;47610;52.252;20.922;2023-12-20T00:51:26;99389.52;;;6.71;100.00
61697;BME280;47610;52.252;20.922;2023-12-20T00:56:29;99391.45;;;6.72;100.00
61697;BME280;47610;52.252;20.922;2023-12-20T01:01:32;99387.88;;;6.74;100.00
61697;BME280;47610;52.252;20.922;2023-12-20T01:06:35;99382.67;;;6.77;100.00
61697;BME280;47610;52.252;20.922;2023-12-20T01:11:38;99384.54;;;6.78;100.00
61697;BME280;47610;52.252;20.922;2023-12-20T01:16:41;99374.30;;;6.79;100.00
61697;BME280;47610;52.252;20.922;2023-12-20T01:21:44;99378.80;;;6.80;100.00
61697;BME280;47610;52.252;20.922;2023-12-20T01:26:47;99376.88;;;6.81;100.00
61697;BME280;47610;52.252;20.922;2023-12-20T01:31:50;99364.95;;;6.81;100.00
61697;BME280;47610;52.252;20.922;2023-12-20T01:36:53;99359.48;;;6.81;100.00
61697;BME280;47610;52.252;20.922;2023-12-20T01:41:57;99354.89;;;6.76;100.00
61697;BME280;47610;52.252;20.922;2023-12-20T01:47:00;99358.02;;;6.76;100.00
61697;BME280;47610;52.252;20.922;2023-12-20T01:52:03;99352.92;;;6.76;100.00
61697;BME280;47610;52.252;20.922;2023-12-20T01:57:07;99353.73;;;6.82;100.00
61697;BME280;47610;52.252;20.922;2023-12-20T02:02:10;99348.42;;;6.82;100.00
61697;BME280;47610;52.252;20.922;2023-12-20T02:07:14;99339.90;;;6.81;100.00
61697;BME280;47610;52.252;20.922;2023-12-20T02:12:18;99339.26;;;6.78;100.00
61697;BME280;47610;52.252;20.922;2023-12-20T02:17:21;99337.49;;;6.79;100.00
61697;BME280;47610;52.252;20.922;2023-12-20T02:22:25;99330.38;;;6.79;100.00
61697;BME280;47610;52.252;20.922;2023-12-20T02:27:29;99329.84;;;6.79;100.00
61697;BME280;47610;52.252;20.922;2023-12-20T02:32:32;99320.09;;;6.77;100.00
61697;BME280;47610;52.252;20.922;2023-12-20T02:37:35;99309.15;;;6.81;100.00
61697;BME280;47610;52.252;20.922;2023-12-20T02:42:38;99304.50;;;6.83;100.00
61697;BME280;47610;52.252;20.922;2023-12-20T02:47:41;99297.35;;;6.81;100.00
61697;BME280;47610;52.252;20.922;2023-12-20T02:52:46;99298.65;;;6.79;100.00
61697;BME280;47610;52.252;20.922;2023-12-20T02:57:49;99296.41;;;6.80;100.00
61697;BME280;47610;52.252;20.922;2023-12-20T03:02:52;99296.79;;;6.81;100.00
61697;BME280;47610;52.252;20.922;2023-12-20T03:07:55;99294.77;;;6.81;100.00
61697;BME280;47610;52.252;20.922;2023-12-20T03:12:58;99290.98;;;6.80;100.00
61697;BME280;47610;52.252;20.922;2023-12-20T03:18:01;99289.46;;;6.81;100.00
61697;BME280;47610;52.252;20.922;2023-12-20T03:23:04;99280.86;;;6.82;100.00
61697;BME280;47610;52.252;20.922;2023-12-20T03:28:08;99298.48;;;6.83;100.00
61697;BME280;47610;52.252;20.922;2023-12-20T03:33:11;99294.43;;;6.84;100.00
61697;BME280;47610;52.252;20.922;2023-12-20T03:38:14;99286.83;;;6.84;100.00
61697;BME280;47610;52.252;20.922;2023-12-20T03:43:17;99280.48;;;6.84;100.00
61697;BME280;47610;52.252;20.922;2023-12-20T03:48:20;99275.60;;;6.86;100.00
61697;BME280;47610;52.252;20.922;2023-12-20T03:53:23;99286.71;;;6.85;100.00
61697;BME280;47610;52.252;20.922;2023-12-20T03:58:27;99283.77;;;6.85;100.00
61697;BME280;47610;52.252;20.922;2023-12-20T04:03:30;99269.64;;;6.84;100.00
61697;BME280;47610;52.252;20.922;2023-12-20T04:08:33;99274.52;;;6.84;100.00
61697;BME280;47610;52.252;20.922;2023-12-20T04:13:36;99282.01;;;6.86;100.00
61697;BME280;47610;52.252;20.922;2023-12-20T04:18:39;99279.10;;;6.86;100.00
61697;BME280;47610;52.252;20.922;2023-12-20T04:23:42;99284.80;;;6.86;100.00
61697;BME280;47610;52.252;20.922;2023-12-20T04:28:45;99272.54;;;6.87;100.00
61697;BME280;47610;52.252;20.922;2023-12-20T04:33:48;99278.66;;;6.88;100.00
61697;BME280;47610;52.252;20.922;2023-12-20T04:38:51;99269.91;;;6.88;100.00
61697;BME280;47610;52.252;20.922;2023-12-20T04:43:54;99280.41;;;6.89;100.00
61697;BME280;47610;52.252;20.922;2023-12-20T04:48:57;99284.56;;;6.90;100.00
61697;BME280;47610;52.252;20.922;2023-12-20T04:54:01;99280.30;;;6.90;100.00
61697;BME280;47610;52.252;20.922;2023-12-20T04:59:04;99276.27;;;6.89;100.00
61697;BME280;47610;52.252;20.922;2023-12-20T05:04:07;99276.80;;;6.90;100.00
61697;BME280;47610;52.252;20.922;2023-12-20T05:09:10;99268.20;;;6.91;100.00
61697;BME280;47610;52.252;20.922;2023-12-20T05:14:13;99268.64;;;6.90;100.00
61697;BME280;47610;52.252;20.922;2023-12-20T05:19:16;99260.16;;;6.90;100.00
61697;BME280;47610;52.252;20.922;2023-12-20T05:24:19;99258.63;;;6.90;100.00
61697;BME280;47610;52.252;20.922;2023-12-20T05:29:23;99263.50;;;6.90;100.00
61697;BME280;47610;52.252;20.922;2023-12-20T05:34:26;99262.18;;;6.91;100.00
61697;BME280;47610;52.252;20.922;2023-12-20T05:39:29;99258.52;;;6.90;100.00
61697;BME280;47610;52.252;20.922;2023-12-20T05:44:32;99255.74;;;6.87;100.00
61697;BME280;47610;52.252;20.922;2023-12-20T05:49:35;99253.02;;;6.84;100.00
61697;BME280;47610;52.252;20.922;2023-12-20T05:54:38;99246.52;;;6.83;100.00
61697;BME280;47610;52.252;20.922;2023-12-20T05:59:42;99244.10;;;6.85;100.00
61697;BME280;47610;52.252;20.922;2023-12-20T06:04:45;99243.48;;;6.88;100.00
61697;BME280;47610;52.252;20.922;2023-12-20T06:09:48;99249.23;;;6.90;100.00
61697;BME280;47610;52.252;20.922;2023-12-20T06:14:51;99255.91;;;6.87;100.00
61697;BME280;47610;52.252;20.922;2023-12-20T06:19:54;99254.22;;;6.83;100.00
61697;BME280;47610;52.252;20.922;2023-12-20T06:24:57;99247.55;;;6.80;100.00
61697;BME280;47610;52.252;20.922;2023-12-20T06:30:00;99255.33;;;6.80;100.00
61697;BME280;47610;52.252;20.922;2023-12-20T06:35:04;99259.35;;;6.67;100.00
61697;BME280;47610;52.252;20.922;2023-12-20T06:40:09;99256.23;;;6.40;100.00
61697;BME280;47610;52.252;20.922;2023-12-20T06:45:13;99251.98;;;6.23;100.00
61697;BME280;47610;52.252;20.922;2023-12-20T06:50:16;99258.45;;;6.04;100.00
61697;BME280;47610;52.252;20.922;2023-12-20T06:55:19;99261.23;;;5.96;100.00
61697;BME280;47610;52.252;20.922;2023-12-20T07:00:23;99260.11;;;5.89;100.00
61697;BME280;47610;52.252;20.922;2023-12-20T07:05:26;99255.23;;;5.85;100.00
61697;BME280;47610;52.252;20.922;2023-12-20T07:10:29;99253.71;;;5.80;100.00
61697;BME280;47610;52.252;20.922;2023-12-20T07:15:32;99251.80;;;5.80;100.00
61697;BME280;47610;52.252;20.922;2023-12-20T07:20:35;99253.70;;;5.79;100.00
61697;BME280;47610;52.252;20.922;2023-12-20T07:25:38;99264.08;;;5.73;100.00
61697;BME280;47610;52.252;20.922;2023-12-20T07:30:42;99271.88;;;5.72;100.00
61697;BME280;47610;52.252;20.922;2023-12-20T07:35:45;99260.36;;;5.72;100.00
61697;BME280;47610;52.252;20.922;2023-12-20T07:40:48;99262.48;;;5.66;100.00
61697;BME280;47610;52.252;20.922;2023-12-20T07:45:51;99259.59;;;5.68;100.00
61697;BME280;47610;52.252;20.922;2023-12-20T07:50:54;99261.13;;;5.74;100.00
61697;BME280;47610;52.252;20.922;2023-12-20T07:55:57;99258.34;;;5.78;100.00
61697;BME280;47610;52.252;20.922;2023-12-20T08:01:00;99250.97;;;5.78;100.00
61697;BME280;47610;52.252;20.922;2023-12-20T08:06:04;99252.84;;;5.82;100.00
61697;BME280;47610;52.252;20.922;2023-12-20T08:11:07;99255.06;;;5.80;100.00
61697;BME280;47610;52.252;20.922;2023-12-20T08:16:10;99259.33;;;5.81;100.00
61697;BME280;47610;52.252;20.922;2023-12-20T08:21:13;99254.59;;;5.79;100.00
61697;BME280;47610;52.252;20.922;2023-12-20T08:26:19;99253.55;;;5.79;100.00
61697;BME280;47610;52.252;20.922;2023-12-20T08:31:23;99242.95;;;5.74;100.00
61697;BME280;47610;52.252;20.922;2023-12-20T08:36:26;99243.27;;;5.77;100.00
61697;BME280;47610;52.252;20.922;2023-12-20T08:41:29;99247.20;;;5.78;100.00
61697;BME280;47610;52.252;20.922;2023-12-20T08:46:32;99243.70;;;5.79;100.00
61697;BME280;47610;52.252;20.922;2023-12-20T08:51:35;99235.45;;;5.72;100.00
61697;BME280;47610;52.252;20.922;2023-12-20T08:56:38;99243.27;;;5.74;100.00
61697;BME280;47610;52.252;20.922;2023-12-20T09:01:41;99242.99;;;5.75;100.00
61697;BME280;47610;52.252;20.922;2023-12-20T09:06:44;99243.11;;;5.71;100.00
61697;BME280;47610;52.252;20.922;2023-12-20T09:11:47;99233.49;;;5.73;100.00
61697;BME280;47610;52.252;20.922;2023-12-20T09:16:50;99228.69;;;5.74;100.00
61697;BME280;47610;52.252;20.922;2023-12-20T09:21:53;99224.70;;;5.73;100.00
61697;BME280;47610;52.252;20.922;2023-12-20T09:26:57;99217.38;;;5.66;100.00
61697;BME280;47610;52.252;20.922;2023-12-20T09:32:00;99208.36;;;5.72;100.00
61697;BME280;47610;52.252;20.922;2023-12-20T09:37:03;99202.15;;;5.76;100.00
61697;BME280;47610;52.252;20.922;2023-12-20T09:42:07;99201.65;;;5.81;100.00
61697;BME280;47610;52.252;20.922;2023-12-20T09:47:10;99200.70;;;6.01;100.00
61697;BME280;47610;52.252;20.922;2023-12-20T09:52:15;99197.13;;;6.19;100.00
61697;BME280;47610;52.252;20.922;2023-12-20T09:57:18;99195.29;;;6.33;100.00
61697;BME280;47610;52.252;20.922;2023-12-20T10:02:25;99189.75;;;6.41;100.00
61697;BME280;47610;52.252;20.922;2023-12-20T10:07:28;99187.70;;;6.52;100.00
61697;BME280;47610;52.252;20.922;2023-12-20T10:12:31;99188.93;;;6.60;100.00
61697;BME280;47610;52.252;20.922;2023-12-20T10:17:34;99189.56;;;6.68;100.00
61697;BME280;47610;52.252;20.922;2023-12-20T10:22:38;99188.23;;;6.75;100.00
61697;BME280;47610;52.252;20.922;2023-12-20T10:27:41;99182.08;;;6.79;100.00
61697;BME280;47610;52.252;20.922;2023-12-20T10:32:44;99169.76;;;6.83;100.00
61697;BME280;47610;52.252;20.922;2023-12-20T10:37:47;99162.62;;;6.88;100.00
61697;BME280;47610;52.252;20.922;2023-12-20T10:42:51;99164.34;;;6.94;100.00
61697;BME280;47610;52.252;20.922;2023-12-20T10:47:56;99163.33;;;7.00;100.00
61697;BME280;47610;52.252;20.922;2023-12-20T10:52:59;99169.85;;;7.07;100.00
61697;BME280;47610;52.252;20.922;2023-12-20T10:58:05;99168.07;;;7.12;100.00
61697;BME280;47610;52.252;20.922;2023-12-20T11:03:10;99157.30;;;7.17;100.00
61697;BME280;47610;52.252;20.922;2023-12-20T11:08:19;99148.09;;;7.22;100.00
61697;BME280;47610;52.252;20.922;2023-12-20T11:13:26;99139.63;;;7.27;100.00
61697;BME280;47610;52.252;20.922;2023-12-20T11:18:33;99129.61;;;7.26;100.00
61697;BME280;47610;52.252;20.922;2023-12-20T11:23:36;99123.44;;;7.24;100.00
61697;BME280;47610;52.252;20.922;2023-12-20T11:28:39;99111.91;;;7.29;100.00
61697;BME280;47610;52.252;20.922;2023-12-20T11:33:43;99116.71;;;7.32;100.00
61697;BME280;47610;52.252;20.922;2023-12-20T11:38:57;99102.52;;;7.33;100.00
61697;BME280;47610;52.252;20.922;2023-12-20T11:44:00;99102.59;;;7.32;100.00
61697;BME280;47610;52.252;20.922;2023-12-20T11:49:03;99090.77;;;7.31;100.00
61697;BME280;47610;52.252;20.922;2023-12-20T11:54:07;99083.89;;;7.29;100.00
61697;BME280;47610;52.252;20.922;2023-12-20T11:59:10;99079.83;;;7.29;100.00
61697;BME280;47610;52.252;20.922;2023-12-20T12:04:13;99072.45;;;7.28;100.00
61697;BME280;47610;52.252;20.922;2023-12-20T12:09:17;99070.48;;;7.23;100.00
61697;BME280;47610;52.252;20.922;2023-12-20T12:14:21;99071.98;;;7.17;100.00
61697;BME280;47610;52.252;20.922;2023-12-20T12:19:24;99068.10;;;7.16;100.00
61697;BME280;47610;52.252;20.922;2023-12-20T12:24:28;99069.79;;;7.11;100.00
61697;BME280;47610;52.252;20.922;2023-12-20T12:29:31;99064.61;;;7.08;100.00
61697;BME280;47610;52.252;20.922;2023-12-20T12:34:34;99060.17;;;7.02;100.00
61697;BME280;47610;52.252;20.922;2023-12-20T12:39:37;99053.18;;;6.99;100.00
61697;BME280;47610;52.252;20.922;2023-12-20T12:44:41;99052.39;;;6.95;100.00
61697;BME280;47610;52.252;20.922;2023-12-20T12:49:44;99054.23;;;6.89;100.00
61697;BME280;47610;52.252;20.922;2023-12-20T12:54:47;99059.96;;;6.84;100.00
61697;BME280;47610;52.252;20.922;2023-12-20T12:59:50;99064.50;;;6.82;100.00
61697;BME280;47610;52.252;20.922;2023-12-20T13:04:53;99045.60;;;6.81;100.00
61697;BME280;47610;52.252;20.922;2023-12-20T13:09:56;99047.17;;;6.81;100.00
61697;BME280;47610;52.252;20.922;2023-12-20T13:14:59;99049.75;;;6.80;100.00
61697;BME280;47610;52.252;20.922;2023-12-20T13:20:03;99053.77;;;6.78;100.00
61697;BME280;47610;52.252;20.922;2023-12-20T13:25:07;99051.80;;;6.78;100.00
61697;BME280;47610;52.252;20.922;2023-12-20T13:30:11;99045.85;;;6.75;100.00
61697;BME280;47610;52.252;20.922;2023-12-20T13:35:14;99047.60;;;6.73;100.00
61697;BME280;47610;52.252;20.922;2023-12-20T13:40:18;99030.25;;;6.67;100.00
61697;BME280;47610;52.252;20.922;2023-12-20T13:45:21;99042.52;;;6.66;100.00
61697;BME280;47610;52.252;20.922;2023-12-20T13:50:24;99040.23;;;6.63;100.00
61697;BME280;47610;52.252;20.922;2023-12-20T13:55:27;99040.31;;;6.58;100.00
61697;BME280;47610;52.252;20.922;2023-12-20T14:00:30;99037.26;;;6.57;100.00
61697;BME280;47610;52.252;20.922;2023-12-20T14:05:34;99030.20;;;6.56;100.00
61697;BME280;47610;52.252;20.922;2023-12-20T14:10:38;99031.55;;;6.60;100.00
61697;BME280;47610;52.252;20.922;2023-12-20T14:15:41;99040.25;;;6.57;100.00
61697;BME280;47610;52.252;20.922;2023-12-20T14:20:44;99044.45;;;6.51;100.00
61697;BME280;47610;52.252;20.922;2023-12-20T14:25:47;99042.27;;;6.48;100.00
61697;BME280;47610;52.252;20.922;2023-12-20T14:30:50;99044.60;;;6.43;100.00
61697;BME280;47610;52.252;20.922;2023-12-20T14:35:53;99055.38;;;6.42;100.00
61697;BME280;47610;52.252;20.922;2023-12-20T14:40:56;99050.69;;;6.37;100.00
61697;BME280;47610;52.252;20.922;2023-12-20T14:45:59;99047.27;;;6.35;100.00
61697;BME280;47610;52.252;20.922;2023-12-20T14:51:03;99048.66;;;6.29;100.00
61697;BME280;47610;52.252;20.922;2023-12-20T14:56:08;99049.44;;;6.24;100.00
61697;BME280;47610;52.252;20.922;2023-12-20T15:01:11;99045.59;;;6.16;100.00
61697;BME280;47610;52.252;20.922;2023-12-20T15:06:14;99041.14;;;6.09;100.00
61697;BME280;47610;52.252;20.922;2023-12-20T15:11:18;99040.61;;;6.01;100.00
61697;BME280;47610;52.252;20.922;2023-12-20T15:16:21;99033.36;;;5.97;100.00
61697;BME280;47610;52.252;20.922;2023-12-20T15:21:24;99036.60;;;5.96;100.00
61697;BME280;47610;52.252;20.922;2023-12-20T15:26:27;99033.86;;;5.95;100.00
61697;BME280;47610;52.252;20.922;2023-12-20T15:31:30;99027.64;;;5.95;100.00
61697;BME280;47610;52.252;20.922;2023-12-20T15:36:34;99025.29;;;5.96;100.00
61697;BME280;47610;52.252;20.922;2023-12-20T15:41:37;99020.64;;;5.93;100.00
61697;BME280;47610;52.252;20.922;2023-12-20T15:46:40;99015.07;;;5.88;100.00
61697;BME280;47610;52.252;20.922;2023-12-20T15:51:43;99007.31;;;5.86;100.00
61697;BME280;47610;52.252;20.922;2023-12-20T15:56:47;98997.31;;;5.86;100.00
61697;BME280;47610;52.252;20.922;2023-12-20T16:01:50;98987.23;;;5.82;100.00
61697;BME280;47610;52.252;20.922;2023-12-20T16:06:53;98975.65;;;5.80;100.00
61697;BME280;47610;52.252;20.922;2023-12-20T16:11:56;98970.30;;;5.79;100.00
61697;BME280;47610;52.252;20.922;2023-12-20T16:16:59;98977.07;;;5.81;100.00
61697;BME280;47610;52.252;20.922;2023-12-20T16:22:03;98977.91;;;5.78;100.00
61697;BME280;47610;52.252;20.922;2023-12-20T16:27:06;98977.30;;;5.77;100.00
61697;BME280;47610;52.252;20.922;2023-12-20T16:32:09;98981.35;;;5.77;100.00
61697;BME280;47610;52.252;20.922;2023-12-20T16:37:12;98974.80;;;5.74;100.00
61697;BME280;47610;52.252;20.922;2023-12-20T16:42:16;98971.70;;;5.72;100.00
61697;BME280;47610;52.252;20.922;2023-12-20T16:47:19;98973.02;;;5.73;100.00
61697;BME280;47610;52.252;20.922;2023-12-20T16:52:22;98978.31;;;5.71;100.00
61697;BME280;47610;52.252;20.922;2023-12-20T16:57:25;98973.11;;;5.73;100.00
61697;BME280;47610;52.252;20.922;2023-12-20T17:02:28;98965.31;;;5.75;100.00
61697;BME280;47610;52.252;20.922;2023-12-20T17:07:31;98960.16;;;5.73;100.00
61697;BME280;47610;52.252;20.922;2023-12-20T17:12:34;98959.48;;;5.68;100.00
61697;BME280;47610;52.252;20.922;2023-12-20T17:17:38;98958.28;;;5.68;100.00
61697;BME280;47610;52.252;20.922;2023-12-20T17:22:41;98959.26;;;5.66;100.00
61697;BME280;47610;52.252;20.922;2023-12-20T17:27:44;98951.02;;;5.68;100.00
61697;BME280;47610;52.252;20.922;2023-12-20T17:32:47;98942.17;;;5.66;100.00
61697;BME280;47610;52.252;20.922;2023-12-20T17:37:50;98936.11;;;5.65;100.00
61697;BME280;47610;52.252;20.922;2023-12-20T17:42:53;98930.02;;;5.59;100.00
61697;BME280;47610;52.252;20.922;2023-12-20T17:47:56;98928.45;;;5.60;100.00
61697;BME280;47610;52.252;20.922;2023-12-20T17:52:59;98921.84;;;5.59;100.00
61697;BME280;47610;52.252;20.922;2023-12-20T17:58:03;98908.48;;;5.54;100.00
61697;BME280;47610;52.252;20.922;2023-12-20T18:03:07;98901.08;;;5.48;100.00
61697;BME280;47610;52.252;20.922;2023-12-20T18:08:10;98900.16;;;5.46;100.00
61697;BME280;47610;52.252;20.922;2023-12-20T18:13:13;98888.75;;;5.47;100.00
61697;BME280;47610;52.252;20.922;2023-12-20T18:18:16;98892.38;;;5.53;100.00
61697;BME280;47610;52.252;20.922;2023-12-20T18:23:19;98889.77;;;5.52;100.00
61697;BME280;47610;52.252;20.922;2023-12-20T18:28:23;98885.17;;;5.54;100.00
61697;BME280;47610;52.252;20.922;2023-12-20T18:33:26;98875.25;;;5.50;100.00
61697;BME280;47610;52.252;20.922;2023-12-20T18:38:29;98868.66;;;5.46;100.00
61697;BME280;47610;52.252;20.922;2023-12-20T18:43:32;98874.08;;;5.45;100.00
61697;BME280;47610;52.252;20.922;2023-12-20T18:48:36;98868.55;;;5.48;100.00
61697;BME280;47610;52.252;20.922;2023-12-20T18:53:39;98870.27;;;5.53;100.00
61697;BME280;47610;52.252;20.922;2023-12-20T18:58:42;98872.44;;;5.57;100.00
61697;BME280;47610;52.252;20.922;2023-12-20T19:03:45;98866.73;;;5.61;100.00
61697;BME280;47610;52.252;20.922;2023-12-20T19:08:48;98878.55;;;5.58;100.00
61697;BME280;47610;52.252;20.922;2023-12-20T19:13:51;98886.54;;;5.54;100.00
61697;BME280;47610;52.252;20.922;2023-12-20T19:18:54;98895.83;;;5.51;100.00
61697;BME280;47610;52.252;20.922;2023-12-20T19:23:58;98895.20;;;5.46;100.00
61697;BME280;47610;52.252;20.922;2023-12-20T19:29:01;98902.31;;;5.36;100.00
61697;BME280;47610;52.252;20.922;2023-12-20T19:34:04;98902.08;;;5.27;100.00
61697;BME280;47610;52.252;20.922;2023-12-20T19:39:07;98906.08;;;5.17;100.00
61697;BME280;47610;52.252;20.922;2023-12-20T19:44:10;98917.76;;;5.13;100.00
61697;BME280;47610;52.252;20.922;2023-12-20T19:49:13;98900.04;;;5.08;100.00
61697;BME280;47610;52.252;20.922;2023-12-20T19:54:16;98904.03;;;5.00;100.00
61697;BME280;47610;52.252;20.922;2023-12-20T19:59:20;98910.36;;;4.89;100.00
61697;BME280;47610;52.252;20.922;2023-12-20T20:04:23;98906.72;;;4.83;100.00
61697;BME280;47610;52.252;20.922;2023-12-20T20:09:26;98917.14;;;4.79;100.00
61697;BME280;47610;52.252;20.922;2023-12-20T20:14:29;98924.23;;;4.77;100.00
61697;BME280;47610;52.252;20.922;2023-12-20T20:19:32;98930.60;;;4.76;100.00
61697;BME280;47610;52.252;20.922;2023-12-20T20:24:35;98929.73;;;4.75;100.00
61697;BME280;47610;52.252;20.922;2023-12-20T20:29:38;98929.84;;;4.70;100.00
61697;BME280;47610;52.252;20.922;2023-12-20T20:34:43;98938.23;;;4.65;100.00
61697;BME280;47610;52.252;20.922;2023-12-20T20:39:46;98936.39;;;4.58;100.00
61697;BME280;47610;52.252;20.922;2023-12-20T20:44:49;98945.70;;;4.50;100.00
61697;BME280;47610;52.252;20.922;2023-12-20T20:49:52;98928.46;;;4.37;100.00
61697;BME280;47610;52.252;20.922;2023-12-20T20:54:55;98937.54;;;4.22;100.00
61697;BME280;47610;52.252;20.922;2023-12-20T20:59:59;98944.67;;;4.06;100.00
61697;BME280;47610;52.252;20.922;2023-12-20T21:05:02;98949.56;;;4.02;100.00
61697;BME280;47610;52.252;20.922;2023-12-20T21:10:07;98951.10;;;4.06;100.00
61697;BME280;47610;52.252;20.922;2023-12-20T21:15:11;98949.22;;;4.13;100.00
61697;BME280;47610;52.252;20.922;2023-12-20T21:20:14;98947.33;;;4.17;100.00
61697;BME280;47610;52.252;20.922;2023-12-20T21:25:18;98947.27;;;4.18;100.00
61697;BME280;47610;52.252;20.922;2023-12-20T21:30:21;98950.24;;;4.11;100.00
61697;BME280;47610;52.252;20.922;2023-12-20T21:35:24;98953.98;;;4.01;100.00
61697;BME280;47610;52.252;20.922;2023-12-20T21:40:27;98950.65;;;4.01;100.00
61697;BME280;47610;52.252;20.922;2023-12-20T21:45:30;98947.02;;;4.03;100.00
61697;BME280;47610;52.252;20.922;2023-12-20T21:50:33;98942.03;;;4.10;100.00
61697;BME280;47610;52.252;20.922;2023-12-20T21:55:36;98936.92;;;4.18;100.00
61697;BME280;47610;52.252;20.922;2023-12-20T22:00:40;98944.81;;;4.20;100.00
61697;BME280;47610;52.252;20.922;2023-12-20T22:05:44;98949.45;;;4.24;100.00
61697;BME280;47610;52.252;20.922;2023-12-20T22:10:47;98949.46;;;4.25;100.00
61697;BME280;47610;52.252;20.922;2023-12-20T22:15:50;98956.98;;;4.26;100.00
61697;BME280;47610;52.252;20.922;2023-12-20T22:20:53;98959.34;;;4.30;100.00
61697;BME280;47610;52.252;20.922;2023-12-20T22:25:57;98955.86;;;4.32;100.00
61697;BME280;47610;52.252;20.922;2023-12-20T22:31:00;98955.05;;;4.34;100.00
61697;BME280;47610;52.252;20.922;2023-12-20T22:36:03;98960.10;;;4.30;100.00
61697;BME280;47610;52.252;20.922;2023-12-20T22:41:07;98956.44;;;4.27;100.00
61697;BME280;47610;52.252;20.922;2023-12-20T22:46:11;98959.11;;;4.29;100.00
61697;BME280;47610;52.252;20.922;2023-12-20T22:51:14;98951.33;;;4.29;100.00
61697;BME280;47610;52.252;20.922;2023-12-20T22:56:17;98951.50;;;4.34;100.00
61697;BME280;47610;52.252;20.922;2023-12-20T23:01:20;98961.02;;;4.28;100.00
61697;BME280;47610;52.252;20.922;2023-12-20T23:06:23;98969.19;;;4.28;100.00
61697;BME280;47610;52.252;20.922;2023-12-20T23:11:27;98965.17;;;4.32;100.00
61697;BME280;47610;52.252;20.922;2023-12-20T23:16:30;98958.27;;;4.39;100.00
61697;BME280;47610;52.252;20.922;2023-12-20T23:21:33;98954.73;;;4.43;100.00
61697;BME280;47610;52.252;20.922;2023-12-20T23:26:37;98949.02;;;4.47;100.00
61697;BME280;47610;52.252;20.922;2023-12-20T23:31:40;98940.73;;;4.49;100.00
61697;BME280;47610;52.252;20.922;2023-12-20T23:36:43;98931.35;;;4.49;100.00
61697;BME280;47610;52.252;20.922;2023-12-20T23:41:46;98926.73;;;4.50;100.00
61697;BME280;47610;52.252;20.922;2023-12-20T23:46:49;98928.19;;;4.46;100.00
61697;BME280;47610;52.252;20.922;2023-12-20T23:51:52;98915.45;;;4.44;100.00
61697;BME280;47610;52.252;20.922;2023-12-20T23:56:56;98914.73;;;4.45;100.00
